Time;durP1;ratioP1;P1;durP2;ratioP2;P2;SDS_P1;SDS_P2;PMS_P1;PMS_P2;Temp;Humidity;BMP_temperature;BMP_pressure;BME280_temperature;BME280_humidity;BME280_pressure;Samples;Min_cycle;Max_cycle;Signal;HPM_P1;HPM_P2
2022/08/20 00:00:26;;;;;;;;;4.25;2.00;;;;;25.17;43.49;101388.41;5038889;28;45753;-56
2022/08/20 00:02:54;;;;;;;;;4.00;2.00;;;;;25.17;43.44;101391.06;5039987;28;45384;-56
2022/08/20 00:05:27;;;;;;;;;3.00;2.00;;;;;25.16;43.88;101393.81;5059477;28;44921;-57
2022/08/20 00:07:52;;;;;;;;;2.50;1.25;;;;;25.16;43.74;101391.16;5038355;28;45508;-57
2022/08/20 00:10:19;;;;;;;;;2.00;2.00;;;;;25.16;43.75;101386.69;5037586;28;45705;-57
2022/08/20 00:12:46;;;;;;;;;2.00;2.00;;;;;25.17;44.05;101390.22;5046090;28;45295;-52
2022/08/20 00:15:13;;;;;;;;;3.25;2.00;;;;;25.17;43.88;101387.56;5062091;28;44764;-54
2022/08/20 00:17:39;;;;;;;;;3.00;3.00;;;;;25.17;43.99;101377.78;5040448;28;46141;-60
2022/08/20 00:20:09;;;;;;;;;1.50;1.50;;;;;25.17;43.37;101376.97;5036524;28;45358;-57
2022/08/20 00:22:35;;;;;;;;;3.00;2.50;;;;;25.17;43.25;101379.59;5043463;28;45745;-57
2022/08/20 00:25:01;;;;;;;;;3.50;3.00;;;;;25.16;43.21;101377.91;5058296;28;44778;-57
2022/08/20 00:27:26;;;;;;;;;5.75;2.50;;;;;25.15;43.47;101378.84;5046911;28;46311;-55
2022/08/20 00:29:52;;;;;;;;;2.75;2.00;;;;;25.16;43.64;101380.56;5039236;28;45493;-57
2022/08/20 00:32:17;;;;;;;;;3.00;2.00;;;;;25.16;43.77;101381.41;5059102;28;46059;-57
2022/08/20 00:34:42;;;;;;;;;2.00;2.00;;;;;25.14;43.57;101382.47;5061568;28;44932;-55
2022/08/20 00:37:08;;;;;;;;;3.25;3.00;;;;;25.15;43.90;101381.50;5062593;28;46138;-54
2022/08/20 00:39:33;;;;;;;;;2.75;2.00;;;;;25.16;43.37;101377.91;5048032;28;45342;-58
2022/08/20 00:41:59;;;;;;;;;2.75;1.00;;;;;25.15;43.56;101378.84;5043791;28;45768;-57
2022/08/20 00:44:25;;;;;;;;;2.50;2.50;;;;;25.14;43.58;101382.47;5038077;28;45580;-57
2022/08/20 00:46:52;;;;;;;;;2.50;2.00;;;;;25.14;43.53;101379.81;5036196;28;46613;-56
2022/08/20 00:49:23;;;;;;;;;4.75;2.00;;;;;25.13;43.49;101384.28;5034994;28;45629;-56
2022/08/20 00:51:56;;;;;;;;;1.50;1.25;;;;;25.14;43.33;101382.47;5036219;28;45619;-56
2022/08/20 00:54:40;;;;;;;;;2.00;2.00;;;;;25.14;43.14;101377.16;5036374;28;45419;-54
2022/08/20 00:57:23;;;;;;;;;2.00;2.00;;;;;25.13;43.82;101378.09;5041172;28;46109;-54
2022/08/20 00:59:50;;;;;;;;;2.75;2.00;;;;;25.13;43.51;101375.44;5042570;28;45236;-53
2022/08/20 01:02:18;;;;;;;;;4.00;2.75;;;;;25.13;43.52;101380.75;5040693;28;46136;-53
2022/08/20 01:04:54;;;;;;;;;2.00;2.00;;;;;25.13;43.21;101380.75;5042171;28;45765;-54
2022/08/20 01:07:30;;;;;;;;;4.75;3.00;;;;;25.12;43.42;101376.41;5042975;28;46600;-53
2022/08/20 01:09:55;;;;;;;;;2.75;2.75;;;;;25.12;43.72;101381.69;5042933;28;45411;-53
2022/08/20 01:12:22;;;;;;;;;3.25;2.50;;;;;25.12;43.22;101381.69;5039414;28;45651;-54
2022/08/20 01:14:47;;;;;;;;;3.50;2.25;;;;;25.11;43.66;101377.34;5037772;28;45323;-53
2022/08/20 01:17:18;;;;;;;;;3.50;2.00;;;;;25.11;43.64;101372.03;5053434;28;46884;-53
2022/08/20 01:19:52;;;;;;;;;6.00;2.00;;;;;25.09;43.78;101374.81;5049054;28;45187;-54
2022/08/20 01:25:31;;;;;;;;;2.00;2.00;;;;;25.10;43.90;101367.69;5038710;28;45408;-57
2022/08/20 01:27:58;;;;;;;;;2.50;2.50;;;;;25.10;43.42;101368.56;5047273;28;48235;-55
2022/08/20 01:30:26;;;;;;;;;4.75;3.75;;;;;25.10;43.65;101370.34;5059225;28;45065;-56
2022/08/20 01:32:51;;;;;;;;;2.25;2.25;;;;;25.11;43.07;101372.03;5048852;28;45366;-57
2022/08/20 01:35:20;;;;;;;;;4.25;2.50;;;;;25.11;43.74;101378.22;5055908;28;44825;-51
2022/08/20 01:37:46;;;;;;;;;3.00;2.00;;;;;25.11;43.63;101372.03;5058258;28;45528;-56
2022/08/20 01:40:16;;;;;;;;;3.75;2.50;;;;;25.11;43.61;101380.00;5050556;28;45343;-56
2022/08/20 01:42:47;;;;;;;;;2.25;2.00;;;;;25.10;43.36;101380.94;5051168;28;45248;-57
2022/08/20 01:45:12;;;;;;;;;4.50;3.00;;;;;25.11;43.04;101387.94;5062499;28;44916;-56
2022/08/20 01:47:38;;;;;;;;;5.00;2.00;;;;;25.07;43.24;101378.53;5042257;28;45834;-55
2022/08/20 01:50:16;;;;;;;;;4.25;2.00;;;;;25.06;43.13;101382.13;5038219;28;45374;-56
2022/08/20 01:52:58;;;;;;;;;5.00;1.75;;;;;25.08;43.60;101396.13;5036224;28;45282;-56
2022/08/20 01:55:25;;;;;;;;;2.00;2.00;;;;;25.07;43.43;101397.94;5044974;28;45355;-57
2022/08/20 01:57:51;;;;;;;;;2.00;2.00;;;;;25.07;43.57;101407.69;5054234;28;46582;-57
2022/08/20 02:00:18;;;;;;;;;6.50;2.00;;;;;25.06;43.03;101406.00;5060243;28;45045;-56
2022/08/20 02:02:44;;;;;;;;;3.75;1.75;;;;;25.06;43.47;101404.19;5048046;28;45278;-57
2022/08/20 02:05:10;;;;;;;;;4.25;2.00;;;;;25.05;43.36;101396.34;5036369;28;45617;-57
2022/08/20 02:07:36;;;;;;;;;4.00;3.00;;;;;25.04;43.61;101403.41;5035289;28;46626;-55
2022/08/20 02:10:05;;;;;;;;;4.00;2.25;;;;;25.05;43.50;101406.94;5035550;28;45335;-56
2022/08/20 02:12:31;;;;;;;;;2.00;2.00;;;;;25.04;43.62;101408.72;5036812;28;45796;-57
2022/08/20 02:14:57;;;;;;;;;4.00;2.25;;;;;25.04;43.54;101407.88;5037931;28;45344;-55
2022/08/20 02:17:24;;;;;;;;;4.00;3.00;;;;;25.04;43.32;101408.72;5034514;28;46906;-56
2022/08/20 02:20:17;;;;;;;;;2.50;2.50;;;;;25.04;43.43;101415.84;5034938;28;45740;-57
2022/08/20 02:22:47;;;;;;;;;3.00;3.00;;;;;25.03;43.58;101417.63;5042539;28;45630;-56
2022/08/20 02:25:15;;;;;;;;;2.25;2.00;;;;;25.04;43.52;101413.19;5058323;28;45852;-57
2022/08/20 02:27:44;;;;;;;;;3.00;2.00;;;;;25.05;42.99;101414.91;5036182;28;45499;-55
2022/08/20 02:30:21;;;;;;;;;3.00;3.00;;;;;25.04;43.55;101407.88;5033453;28;45556;-55
2022/08/20 02:32:47;;;;;;;;;2.50;2.00;;;;;25.06;43.09;101411.28;5034894;28;45361;-54
2022/08/20 02:35:13;;;;;;;;;2.75;2.00;;;;;25.06;42.86;101414.78;5034591;28;45312;-57
2022/08/20 02:37:41;;;;;;;;;3.50;3.00;;;;;25.07;43.47;101419.13;5034747;28;47435;-56
2022/08/20 02:40:12;;;;;;;;;4.00;4.00;;;;;25.05;42.83;101410.44;5037004;28;45596;-56
2022/08/20 02:42:41;;;;;;;;;4.25;3.00;;;;;25.05;43.45;101407.78;5038363;28;45343;-57
2022/08/20 02:45:13;;;;;;;;;3.25;3.00;;;;;25.04;42.70;101403.41;5038459;28;45658;-57
2022/08/20 02:47:39;;;;;;;;;4.00;3.00;;;;;25.03;43.45;101408.84;5039036;28;46413;-57
2022/08/20 02:50:06;;;;;;;;;2.75;1.75;;;;;25.01;42.86;101409.78;5046826;28;45252;-55
2022/08/20 02:52:32;;;;;;;;;3.00;2.50;;;;;25.00;43.40;101410.72;5060297;28;45275;-56
2022/08/20 02:54:57;;;;;;;;;3.25;2.00;;;;;24.99;43.12;101411.69;5044883;28;45220;-54
2022/08/20 02:57:22;;;;;;;;;2.00;1.75;;;;;24.98;43.26;101420.59;5038748;28;46155;-55
2022/08/20 02:59:51;;;;;;;;;7.75;4.00;;;;;24.97;43.20;101413.56;5037925;28;45174;-53
2022/08/20 03:02:17;;;;;;;;;4.00;2.25;;;;;24.98;43.46;101419.75;5037825;28;45424;-52
2022/08/20 03:04:42;;;;;;;;;4.50;3.00;;;;;24.96;43.46;101414.56;5038502;28;45416;-53
2022/08/20 03:07:09;;;;;;;;;5.50;2.50;;;;;24.95;43.47;101412.00;5037597;28;47374;-56
2022/08/20 03:09:35;;;;;;;;;2.25;2.25;;;;;24.95;43.47;101414.63;5038298;28;46113;-55
2022/08/20 03:12:01;;;;;;;;;4.25;3.00;;;;;24.94;42.94;101411.16;5058957;28;45390;-56
2022/08/20 03:14:27;;;;;;;;;2.75;2.75;;;;;24.92;43.54;101415.69;5045810;28;45269;-56
2022/08/20 03:16:52;;;;;;;;;3.50;2.00;;;;;24.93;43.18;101412.09;5038607;28;46372;-56
2022/08/20 03:19:18;;;;;;;;;4.50;2.00;;;;;24.90;43.50;101404.34;5039824;28;45175;-56
2022/08/20 03:21:43;;;;;;;;;2.00;2.00;;;;;24.88;43.02;101408.88;5037914;28;45288;-57
2022/08/20 03:24:09;;;;;;;;;5.00;3.00;;;;;24.89;43.20;101415.88;5037479;28;45424;-57
2022/08/20 03:26:36;;;;;;;;;2.00;2.00;;;;;24.87;43.44;101409.81;5037555;28;46167;-54
2022/08/20 03:29:01;;;;;;;;;3.50;2.00;;;;;24.88;43.03;101408.03;5036339;28;45408;-57
2022/08/20 03:31:26;;;;;;;;;2.75;2.75;;;;;24.87;43.15;101417.78;5038713;28;45915;-57
2022/08/20 03:33:52;;;;;;;;;2.50;2.00;;;;;24.85;43.10;101409.94;5062015;28;46040;-54
2022/08/20 03:36:18;;;;;;;;;4.25;2.00;;;;;24.86;43.04;101413.44;5050405;28;45631;-56
2022/08/20 03:38:43;;;;;;;;;1.75;1.50;;;;;24.87;42.88;101417.78;5037545;28;45374;-57
2022/08/20 03:41:08;;;;;;;;;3.75;3.00;;;;;24.88;43.17;101413.34;5037052;28;45427;-56
2022/08/20 03:43:36;;;;;;;;;2.25;2.00;;;;;24.89;43.51;101410.59;5037332;28;45336;-52
2022/08/20 03:46:02;;;;;;;;;2.75;2.75;;;;;24.88;43.08;101419.47;5036405;28;47228;-56
2022/08/20 03:48:28;;;;;;;;;5.50;3.00;;;;;24.89;43.69;101415.88;5036989;28;45828;-56
2022/08/20 03:50:55;;;;;;;;;4.50;2.25;;;;;24.89;43.71;101418.53;5036725;28;45155;-57
2022/08/20 03:53:21;;;;;;;;;4.00;2.75;;;;;24.89;43.71;101418.53;5037233;28;45467;-57
2022/08/20 03:55:47;;;;;;;;;4.00;2.25;;;;;24.88;43.28;101411.53;5037140;28;47051;-57
2022/08/20 03:58:16;;;;;;;;;4.00;2.25;;;;;24.89;43.89;101417.69;5037428;28;45398;-57
2022/08/20 04:00:46;;;;;;;;;2.75;2.25;;;;;24.87;43.71;101417.78;5048369;28;45300;-54
2022/08/20 04:03:11;;;;;;;;;2.00;2.00;;;;;24.89;43.70;101420.34;5045698;28;45421;-58
2022/08/20 04:05:39;;;;;;;;;2.00;2.00;;;;;24.90;43.70;101425.53;5054812;28;45300;-56
2022/08/20 04:08:07;;;;;;;;;2.00;2.00;;;;;24.90;43.77;101420.25;5063688;28;45208;-55
2022/08/20 04:10:32;;;;;;;;;3.75;2.50;;;;;24.90;43.59;101425.53;5064076;28;44753;-57
2022/08/20 04:12:58;;;;;;;;;2.25;1.00;;;;;24.90;43.19;101428.19;5038581;28;45312;-57
2022/08/20 04:15:23;;;;;;;;;4.00;2.75;;;;;24.89;43.53;101423.84;5036778;28;45770;-55
2022/08/20 04:17:49;;;;;;;;;3.25;3.25;;;;;24.91;43.79;101421.94;5036869;28;45297;-56
2022/08/20 04:20:21;;;;;;;;;3.00;2.00;;;;;24.89;43.06;101425.66;5041402;28;45257;-56
2022/08/20 04:22:46;;;;;;;;;2.75;2.75;;;;;24.86;42.90;101424.03;5056080;28;45434;-56
2022/08/20 04:25:12;;;;;;;;;3.50;2.00;;;;;24.83;42.85;101416.31;5039566;28;46359;-56
2022/08/20 04:27:39;;;;;;;;;2.00;2.00;;;;;24.80;43.06;101416.50;5042162;28;54630;-54
2022/08/20 04:30:09;;;;;;;;;4.75;2.25;;;;;24.77;43.37;101419.31;5041165;28;45355;-55
2022/08/20 04:32:35;;;;;;;;;4.00;2.75;;;;;24.75;43.06;101429.22;5058639;28;45780;-54
2022/08/20 04:35:04;;;;;;;;;3.75;2.00;;;;;24.70;43.44;101427.69;5065340;28;45577;-55
2022/08/20 04:37:30;;;;;;;;;6.50;2.00;;;;;24.67;42.95;101432.31;5044669;28;45593;-52
2022/08/20 04:42:40;;;;;;;;;2.75;2.00;;;;;24.62;43.03;101427.31;5040407;28;45288;-54
2022/08/20 04:45:07;;;;;;;;;3.00;1.50;;;;;24.60;43.05;101426.53;5052084;28;46122;-55
2022/08/20 04:47:33;;;;;;;;;2.50;2.50;;;;;24.57;43.57;101420.59;5045502;28;45294;-55
2022/08/20 04:49:59;;;;;;;;;4.00;2.00;;;;;24.54;43.20;101426.91;5043468;28;45490;-54
2022/08/20 04:52:24;;;;;;;;;3.00;3.00;;;;;24.54;42.87;101427.78;5042607;28;45442;-55
2022/08/20 04:54:50;;;;;;;;;1.25;1.25;;;;;24.51;43.07;101424.47;5043215;28;45631;-55
2022/08/20 04:57:15;;;;;;;;;4.00;2.00;;;;;24.49;43.39;101429.03;5042366;28;53076;-54
2022/08/20 04:59:40;;;;;;;;;2.00;2.00;;;;;24.47;42.84;101433.56;5039978;28;48021;-54
2022/08/20 05:02:06;;;;;;;;;2.00;2.00;;;;;24.45;43.34;101433.66;5036005;28;45231;-55
2022/08/20 05:04:31;;;;;;;;;2.50;1.75;;;;;24.44;42.98;101439.91;5041674;28;45406;-54
2022/08/20 05:06:56;;;;;;;;;3.00;2.25;;;;;24.42;42.92;101443.63;5049032;28;45857;-53
2022/08/20 05:09:21;;;;;;;;;2.00;2.00;;;;;24.41;43.20;101447.22;5058644;28;45200;-54
2022/08/20 05:11:47;;;;;;;;;3.25;2.00;;;;;24.38;42.83;101449.09;5036989;28;45304;-54
2022/08/20 05:14:14;;;;;;;;;3.25;3.00;;;;;24.38;43.13;101454.41;5035812;28;46083;-54
2022/08/20 05:16:39;;;;;;;;;2.25;2.25;;;;;24.36;43.46;101452.78;5035800;28;45710;-53
2022/08/20 05:19:08;;;;;;;;;2.25;2.00;;;;;24.35;43.21;101448.44;5035811;28;45212;-54
2022/08/20 05:21:33;;;;;;;;;5.50;1.50;;;;;24.34;43.34;101452.88;5034911;28;45435;-52
2022/08/20 05:23:59;;;;;;;;;2.50;2.50;;;;;24.32;42.87;101453.91;5035927;28;46494;-55
2022/08/20 05:26:25;;;;;;;;;3.75;2.25;;;;;24.30;43.33;101453.16;5034176;28;45330;-55
2022/08/20 05:28:50;;;;;;;;;4.50;3.00;;;;;24.29;43.37;101454.97;5034754;28;45259;-54
2022/08/20 05:31:16;;;;;;;;;7.75;2.00;;;;;24.29;42.94;101454.09;5044354;28;45643;-54
2022/08/20 05:33:41;;;;;;;;;3.25;2.25;;;;;24.28;42.99;101453.25;5057516;28;63218;-55
2022/08/20 05:36:07;;;;;;;;;5.00;2.50;;;;;24.28;43.08;101458.56;5042891;28;45355;-52
2022/08/20 05:38:33;;;;;;;;;2.00;2.00;;;;;24.27;43.01;101462.16;5036691;28;45307;-54
2022/08/20 05:40:59;;;;;;;;;2.50;1.00;;;;;24.27;43.07;101459.50;5037366;28;45260;-53
2022/08/20 05:43:24;;;;;;;;;6.00;2.00;;;;;24.26;43.52;101465.75;5035093;28;47269;-53
2022/08/20 05:45:51;;;;;;;;;3.25;2.25;;;;;24.25;43.04;101464.03;5034200;28;45320;-53
2022/08/20 05:48:19;;;;;;;;;2.75;2.00;;;;;24.26;43.52;101464.88;5035418;28;45365;-54
2022/08/20 05:50:48;;;;;;;;;4.50;2.00;;;;;24.23;43.37;101466.78;5035777;28;45337;-55
2022/08/20 05:53:14;;;;;;;;;5.50;3.00;;;;;24.23;43.05;101460.63;5035176;28;46957;-55
2022/08/20 05:55:39;;;;;;;;;2.00;2.00;;;;;24.20;43.12;101466.09;5035424;28;45580;-55
2022/08/20 05:58:13;;;;;;;;;2.00;2.00;;;;;24.19;43.10;101459.97;5035347;28;45389;-55
2022/08/20 06:00:38;;;;;;;;;2.00;2.00;;;;;24.18;43.06;101462.72;5035874;28;45514;-55
2022/08/20 06:05:48;;;;;;;;;2.75;1.50;;;;;24.17;43.45;101472.44;5035645;28;45730;-54
2022/08/20 06:08:15;;;;;;;;;3.75;2.00;;;;;24.17;43.23;101482.19;5035703;28;45299;-54
2022/08/20 06:10:42;;;;;;;;;2.00;2.00;;;;;24.16;43.69;101480.50;5037956;28;45462;-55
2022/08/20 06:13:08;;;;;;;;;4.75;2.25;;;;;24.16;43.21;101481.34;5040599;28;46177;-55
2022/08/20 06:15:34;;;;;;;;;0.50;0.50;;;;;24.15;43.32;101481.44;5054569;28;45518;-54
2022/08/20 06:18:00;;;;;;;;;2.50;2.00;;;;;24.12;43.54;101478.97;5058682;28;45263;-55
2022/08/20 06:20:27;;;;;;;;;2.00;2.00;;;;;24.11;43.25;101478.13;5056621;28;45314;-56
2022/08/20 06:22:53;;;;;;;;;1.25;1.25;;;;;24.11;43.25;101485.22;5049245;28;46340;-55
2022/08/20 06:25:18;;;;;;;;;4.00;2.75;;;;;24.08;43.94;101487.13;5055622;28;45325;-55
2022/08/20 06:27:44;;;;;;;;;4.00;2.50;;;;;24.07;43.28;101493.34;5061244;28;44700;-52
2022/08/20 06:30:12;;;;;;;;;5.75;3.25;;;;;24.06;43.75;101486.34;5060026;28;44888;-53
2022/08/20 06:32:38;;;;;;;;;3.25;3.25;;;;;24.05;43.30;101483.78;5059568;28;47298;-54
2022/08/20 06:35:06;;;;;;;;;2.75;2.00;;;;;24.04;43.85;101490.88;5055810;28;45300;-53
2022/08/20 06:37:35;;;;;;;;;3.00;2.00;;;;;24.03;43.84;101489.19;5046013;28;45343;-54
2022/08/20 06:40:08;;;;;;;;;2.25;2.25;;;;;24.02;43.66;101484.00;5046395;28;45373;-54
2022/08/20 06:42:34;;;;;;;;;1.25;1.25;;;;;24.01;43.67;101485.75;5046099;28;45479;-54
2022/08/20 06:45:03;;;;;;;;;2.00;2.00;;;;;24.00;43.51;101494.66;5041353;28;45283;-55
2022/08/20 06:47:30;;;;;;;;;6.25;2.00;;;;;24.00;43.84;101491.16;5039661;28;45725;-54
2022/08/20 06:49:55;;;;;;;;;7.00;4.75;;;;;24.00;44.00;101497.28;5039272;28;45441;-54
2022/08/20 06:52:21;;;;;;;;;4.50;2.75;;;;;23.98;43.98;101488.59;5038254;28;46132;-55
2022/08/20 06:54:46;;;;;;;;;4.75;3.00;;;;;23.97;43.83;101486.91;5038947;28;45323;-55
2022/08/20 06:57:12;;;;;;;;;2.50;1.00;;;;;23.95;44.16;101486.16;5040155;28;45244;-53
2022/08/20 06:59:37;;;;;;;;;4.50;2.25;;;;;23.92;44.17;101492.41;5041693;28;45696;-55
2022/08/20 07:02:03;;;;;;;;;4.50;2.75;;;;;23.90;44.23;101485.53;5043693;28;45331;-55
2022/08/20 07:04:28;;;;;;;;;2.25;2.25;;;;;23.89;44.00;101486.47;5044281;28;45185;-55
2022/08/20 07:06:56;;;;;;;;;5.25;2.00;;;;;23.89;44.33;101494.41;5040605;28;45382;-54
2022/08/20 07:09:23;;;;;;;;;4.00;4.00;;;;;23.86;44.01;101490.16;5040159;28;45343;-54
2022/08/20 07:11:48;;;;;;;;;4.75;2.75;;;;;23.86;44.14;101486.66;5038933;28;46269;-54
2022/08/20 07:14:15;;;;;;;;;6.00;4.00;;;;;23.86;44.00;101486.66;5037940;28;45780;-54
2022/08/20 07:16:40;;;;;;;;;3.75;2.50;;;;;23.86;44.52;101484.03;5038005;28;45469;-54
2022/08/20 07:19:07;;;;;;;;;4.50;2.00;;;;;23.87;44.10;101483.06;5036141;28;45715;-54
2022/08/20 07:21:32;;;;;;;;;3.00;3.00;;;;;23.89;44.37;101483.81;5038514;28;47034;-54
2022/08/20 07:23:58;;;;;;;;;4.75;3.00;;;;;23.90;44.46;101481.09;5052561;28;44774;-54
2022/08/20 07:26:23;;;;;;;;;5.00;3.00;;;;;23.92;44.63;101481.00;5052221;28;54131;-55
2022/08/20 07:28:49;;;;;;;;;5.00;3.00;;;;;23.92;44.86;101487.13;5040666;28;45741;-55
2022/08/20 07:33:59;;;;;;;;;2.75;2.00;;;;;23.95;44.87;101491.44;5053812;28;45684;-54
2022/08/20 07:36:24;;;;;;;;;5.75;4.50;;;;;23.96;44.83;101493.16;5038474;28;45561;-54
2022/08/20 07:38:51;;;;;;;;;4.00;4.00;;;;;23.97;44.76;101491.34;5051212;28;45386;-54
2022/08/20 07:41:18;;;;;;;;;6.50;5.00;;;;;23.98;44.65;101493.88;5059194;28;46090;-54
2022/08/20 07:43:44;;;;;;;;;4.00;3.50;;;;;23.97;44.59;101497.50;5058962;28;45859;-54
2022/08/20 07:46:11;;;;;;;;;5.25;3.00;;;;;23.97;44.37;101492.22;5040661;28;45498;-56
2022/08/20 07:48:38;;;;;;;;;6.00;3.00;;;;;23.98;44.94;101496.53;5049813;28;45315;-55
2022/08/20 07:51:05;;;;;;;;;4.50;2.00;;;;;23.99;44.75;101497.41;5049951;28;46918;-54
2022/08/20 07:53:33;;;;;;;;;4.50;3.00;;;;;23.99;45.09;101503.53;5054881;28;45463;-54
2022/08/20 07:56:00;;;;;;;;;2.75;2.25;;;;;24.01;44.95;101508.75;5037720;28;45692;-54
2022/08/20 07:58:25;;;;;;;;;2.00;2.00;;;;;24.00;44.88;101499.94;5036712;28;45732;-53
2022/08/20 08:00:51;;;;;;;;;7.25;4.00;;;;;24.03;45.57;101506.88;5036392;28;49972;-56
2022/08/20 08:03:16;;;;;;;;;4.75;4.25;;;;;24.03;44.98;101507.72;5036580;28;45384;-55
2022/08/20 08:05:45;;;;;;;;;7.75;7.00;;;;;24.06;45.11;101511.97;5036865;28;45381;-55
2022/08/20 08:08:16;;;;;;;;;6.50;4.50;;;;;24.05;45.57;101511.13;5036568;28;45513;-55
2022/08/20 08:10:42;;;;;;;;;5.50;5.00;;;;;24.07;45.64;101501.31;5036491;28;46962;-58
2022/08/20 08:13:11;;;;;;;;;4.00;4.00;;;;;24.09;45.61;101506.50;5036367;28;45849;-59
2022/08/20 08:15:39;;;;;;;;;5.50;4.00;;;;;24.11;45.26;101504.63;5035426;28;45442;-58
2022/08/20 08:18:10;;;;;;;;;5.00;3.00;;;;;24.14;45.65;101503.56;5036851;28;45379;-58
2022/08/20 08:20:40;;;;;;;;;3.50;2.50;;;;;24.16;45.30;101505.16;5046600;28;46547;-57
2022/08/20 08:23:10;;;;;;;;;3.50;2.25;;;;;24.18;45.63;101511.22;5057395;28;44927;-56
2022/08/20 08:25:37;;;;;;;;;3.25;3.25;;;;;24.20;45.47;101505.84;5034597;28;45426;-58
2022/08/20 08:28:03;;;;;;;;;6.00;2.75;;;;;24.23;45.36;101508.31;5036602;28;45438;-56
2022/08/20 08:30:28;;;;;;;;;5.00;3.25;;;;;24.24;45.60;101507.34;5035339;28;47006;-55
2022/08/20 08:35:39;;;;;;;;;7.00;4.00;;;;;24.26;45.39;101521.38;5036337;28;45323;-53
2022/08/20 08:38:04;;;;;;;;;4.50;2.50;;;;;24.27;45.77;101519.56;5036263;28;45460;-56
2022/08/20 08:40:32;;;;;;;;;2.50;2.00;;;;;24.29;45.48;101522.97;5037083;28;45442;-58
2022/08/20 08:43:01;;;;;;;;;5.25;3.00;;;;;24.29;44.82;101513.25;5036456;28;45355;-56
2022/08/20 08:45:36;;;;;;;;;2.00;2.00;;;;;24.31;44.92;101516.63;5036639;28;45318;-55
2022/08/20 08:48:03;;;;;;;;;3.75;3.00;;;;;24.34;45.39;101515.63;5038087;28;45366;-55
2022/08/20 08:50:33;;;;;;;;;5.00;2.50;;;;;24.33;45.59;101501.50;5036812;28;46076;-55
2022/08/20 08:53:01;;;;;;;;;4.00;2.00;;;;;24.35;44.76;101512.84;5042035;28;45350;-57
2022/08/20 08:55:29;;;;;;;;;4.00;3.00;;;;;24.37;45.05;101510.09;5039209;28;45480;-57
2022/08/20 08:57:58;;;;;;;;;2.25;2.25;;;;;24.39;45.08;101502.91;5044794;28;45237;-56
2022/08/20 09:00:25;;;;;;;;;5.25;3.50;;;;;24.42;44.94;101512.50;5059747;28;45579;-56
2022/08/20 09:02:58;;;;;;;;;4.25;1.50;;;;;24.41;44.87;101506.34;5052386;28;45174;-57
2022/08/20 09:05:30;;;;;;;;;3.25;3.25;;;;;24.42;44.54;101513.34;5043907;28;45228;-54
2022/08/20 09:07:57;;;;;;;;;5.75;3.00;;;;;24.47;44.88;101513.91;5043367;28;45347;-52
2022/08/20 09:10:23;;;;;;;;;2.25;1.75;;;;;24.49;44.21;101513.81;5041737;28;46189;-58
2022/08/20 09:12:48;;;;;;;;;5.00;2.00;;;;;24.51;44.29;101512.75;5042617;28;45182;-58
2022/08/20 09:15:14;;;;;;;;;2.00;2.00;;;;;24.54;44.65;101511.72;5042984;28;45168;-57
2022/08/20 09:17:39;;;;;;;;;5.50;3.00;;;;;24.56;44.18;101509.81;5043399;28;45296;-57
2022/08/20 09:20:06;;;;;;;;;3.50;2.25;;;;;24.58;44.67;101513.25;5042281;28;46049;-57
2022/08/20 09:22:32;;;;;;;;;3.00;2.00;;;;;24.60;44.32;101516.66;5040231;28;45367;-57
2022/08/20 09:24:58;;;;;;;;;5.25;3.75;;;;;24.60;43.88;101516.66;5038099;28;45387;-57
2022/08/20 09:27:23;;;;;;;;;1.00;1.00;;;;;24.59;43.62;101514.94;5047446;28;45417;-57
2022/08/20 09:29:49;;;;;;;;;2.50;2.00;;;;;24.59;43.54;101512.28;5054967;28;65075;-57
2022/08/20 09:32:19;;;;;;;;;3.50;2.50;;;;;24.61;43.51;101507.75;5044820;28;45474;-57
2022/08/20 09:34:50;;;;;;;;;3.75;1.00;;;;;24.61;43.52;101510.41;5040607;28;45317;-57
2022/08/20 09:37:16;;;;;;;;;2.50;1.00;;;;;24.60;43.48;101506.06;5046591;28;44889;-57
2022/08/20 09:39:42;;;;;;;;;1.75;1.75;;;;;24.61;43.35;101502.47;5048129;28;45399;-57
2022/08/20 09:42:13;;;;;;;;;2.50;2.00;;;;;24.62;42.77;101509.47;5043100;28;45307;-57
2022/08/20 09:44:40;;;;;;;;;4.00;2.50;;;;;24.62;42.64;101504.16;5036352;28;45416;-57
2022/08/20 09:47:05;;;;;;;;;4.00;2.75;;;;;24.65;43.02;101511.06;5036151;28;45487;-58
2022/08/20 09:49:31;;;;;;;;;5.75;3.50;;;;;24.62;43.24;101503.28;5037760;28;45267;-57
2022/08/20 09:51:58;;;;;;;;;3.50;2.50;;;;;24.66;43.31;101510.13;5039784;28;45351;-57
2022/08/20 09:54:28;;;;;;;;;2.50;2.50;;;;;24.66;43.11;101504.81;5039235;28;45414;-57
2022/08/20 09:56:57;;;;;;;;;3.75;3.75;;;;;24.66;43.24;101505.66;5039464;28;45374;-57
2022/08/20 09:59:22;;;;;;;;;5.00;3.00;;;;;24.68;42.54;101500.28;5038501;28;46059;-57
2022/08/20 10:01:48;;;;;;;;;7.00;5.00;;;;;24.69;42.45;101494.91;5038917;28;45497;-57
2022/08/20 10:04:13;;;;;;;;;5.00;3.00;;;;;24.72;42.93;101503.63;5038894;28;45379;-57
2022/08/20 10:06:40;;;;;;;;;3.75;2.00;;;;;24.75;42.33;101498.13;5038884;28;45493;-56
2022/08/20 10:09:05;;;;;;;;;2.50;2.50;;;;;24.76;42.48;101494.50;5039781;28;46476;-57
2022/08/20 10:11:31;;;;;;;;;2.75;2.75;;;;;24.76;42.77;101498.03;5049523;28;45430;-58
2022/08/20 10:13:57;;;;;;;;;3.00;3.00;;;;;24.81;43.05;101497.72;5063217;28;45335;-58
2022/08/20 10:16:22;;;;;;;;;5.00;2.00;;;;;24.82;42.36;101491.47;5061451;28;44948;-58
2022/08/20 10:18:50;;;;;;;;;4.00;2.00;;;;;24.81;42.23;101481.81;5044579;28;46244;-59
2022/08/20 10:21:16;;;;;;;;;3.00;3.00;;;;;24.84;42.13;101482.47;5051814;28;45914;-58
2022/08/20 10:23:41;;;;;;;;;4.25;2.25;;;;;24.85;42.19;101488.63;5055904;28;45269;-59
2022/08/20 10:26:09;;;;;;;;;3.00;2.25;;;;;24.83;42.52;101490.53;5040880;28;45205;-58
2022/08/20 10:28:34;;;;;;;;;2.25;2.25;;;;;24.88;42.20;101490.25;5038393;28;46156;-58
2022/08/20 10:31:00;;;;;;;;;2.00;1.00;;;;;24.87;42.71;101486.72;5038335;28;45324;-59
2022/08/20 10:33:25;;;;;;;;;4.25;2.00;;;;;24.86;41.97;101490.31;5038122;28;45252;-59
2022/08/20 10:35:51;;;;;;;;;2.00;2.00;;;;;24.86;41.94;101487.66;5038176;28;45529;-60
2022/08/20 10:38:16;;;;;;;;;8.50;6.00;;;;;24.86;42.26;101485.00;5037638;28;47547;-58
2022/08/20 10:40:41;;;;;;;;;14.00;10.50;;;;;24.90;42.11;101481.22;5037392;28;58228;-58
2022/08/20 10:43:07;;;;;;;;;27.50;25.00;;;;;24.89;42.57;101476.88;5037788;28;45331;-59
2022/08/20 10:45:32;;;;;;;;;34.25;26.50;;;;;24.91;42.35;101472.31;5038767;28;45513;-58
2022/08/20 10:47:59;;;;;;;;;24.25;18.00;;;;;24.94;42.17;101473.91;5037826;28;46636;-58
2022/08/20 10:50:24;;;;;;;;;14.25;14.00;;;;;24.94;42.61;101472.13;5037614;28;45879;-58
2022/08/20 10:52:50;;;;;;;;;13.25;10.00;;;;;24.97;42.27;101477.22;5038509;28;45352;-58
2022/08/20 10:55:15;;;;;;;;;11.75;9.00;;;;;24.97;42.32;101477.22;5038016;28;45545;-59
2022/08/20 10:57:41;;;;;;;;;10.50;9.25;;;;;24.99;42.28;101470.03;5040796;28;46141;-58
2022/08/20 11:00:09;;;;;;;;;8.75;7.75;;;;;25.00;42.26;101479.69;5044014;28;45631;-58
2022/08/20 11:02:34;;;;;;;;;8.50;6.25;;;;;25.00;42.37;101476.19;5041370;28;45411;-58
2022/08/20 11:05:00;;;;;;;;;5.00;5.00;;;;;25.03;42.10;101473.31;5038505;28;45315;-58
2022/08/20 11:07:28;;;;;;;;;6.00;6.00;;;;;25.05;41.68;101481.19;5037752;28;47453;-59
2022/08/20 11:09:54;;;;;;;;;5.00;4.00;;;;;25.05;41.62;101473.25;5039036;28;45711;-58
2022/08/20 11:12:20;;;;;;;;;7.00;5.75;;;;;25.06;41.98;101473.13;5046701;28;45271;-59
2022/08/20 11:14:47;;;;;;;;;6.00;6.00;;;;;25.06;41.48;101467.00;5057398;28;45161;-58
2022/08/20 11:17:22;;;;;;;;;7.50;5.75;;;;;25.07;41.95;101482.78;5060624;28;45372;-56
2022/08/20 11:19:47;;;;;;;;;6.25;5.00;;;;;25.10;41.27;101484.38;5052502;28;45272;-58
2022/08/20 11:22:12;;;;;;;;;7.00;5.50;;;;;25.09;41.57;101480.03;5041994;28;47133;-61
2022/08/20 11:24:38;;;;;;;;;8.50;6.00;;;;;25.09;41.64;101478.25;5040142;28;45616;-59
2022/08/20 11:27:06;;;;;;;;;8.00;5.00;;;;;25.11;41.33;101472.84;5042488;28;46128;-56
2022/08/20 11:29:33;;;;;;;;;7.25;6.25;;;;;25.11;42.01;101478.13;5053393;28;45321;-58
2022/08/20 11:31:58;;;;;;;;;7.50;6.75;;;;;25.14;41.94;101477.94;5055199;28;45327;-58
2022/08/20 11:34:23;;;;;;;;;5.75;4.75;;;;;25.16;41.18;101481.34;5040707;28;45391;-59
2022/08/20 11:36:49;;;;;;;;;5.50;4.50;;;;;25.16;40.92;101478.69;5037815;28;47265;-58